createdAt,value
2018-09-13T00:00:02.834Z,61.45
2018-09-13T00:01:02.762Z,61.25
2018-09-13T00:02:02.697Z,61.11
2018-09-13T00:03:02.370Z,61.19
2018-09-13T00:04:02.816Z,60.98
2018-09-13T00:05:02.347Z,61.25
2018-09-13T00:06:02.537Z,61.02
2018-09-13T00:07:02.738Z,61.39
2018-09-13T00:08:02.694Z,61.09
2018-09-13T00:09:02.727Z,61.36
2018-09-13T00:10:02.829Z,61.02
2018-09-13T00:11:02.690Z,60.96
2018-09-13T00:12:02.558Z,61.19
2018-09-13T00:13:02.461Z,61.01
2018-09-13T00:14:02.915Z,61.08
2018-09-13T00:15:02.465Z,61.11
2018-09-13T00:16:02.728Z,60.96
2018-09-13T00:17:02.447Z,61.14
2018-09-13T00:18:02.698Z,61.24
2018-09-13T00:19:03.059Z,61.12
2018-09-13T00:20:02.499Z,61.04
2018-09-13T00:21:02.762Z,61.21
2018-09-13T00:22:02.887Z,61.09
2018-09-13T00:23:02.858Z,61.05
2018-09-13T00:24:02.724Z,61.36
2018-09-13T00:25:02.444Z,61.23
2018-09-13T00:26:02.563Z,61.19
2018-09-13T00:27:02.424Z,61.23
2018-09-13T00:28:02.960Z,61.17
2018-09-13T00:29:02.574Z,61.12
2018-09-13T00:30:02.762Z,61.59
2018-09-13T00:31:02.595Z,61.18
2018-09-13T00:32:02.567Z,61.3
2018-09-13T00:33:02.533Z,61.11
2018-09-13T00:34:02.772Z,61.42
2018-09-13T00:35:02.456Z,61.48
2018-09-13T00:36:02.523Z,61.13
2018-09-13T00:37:02.786Z,61.32
2018-09-13T00:38:02.723Z,61.37
2018-09-13T00:39:02.715Z,61.42
2018-09-13T00:40:02.440Z,61.17
2018-09-13T00:41:02.443Z,61.46
2018-09-13T00:42:02.566Z,61.3
2018-09-13T00:43:02.791Z,61.29
2018-09-13T00:44:02.603Z,61.52
2018-09-13T00:45:02.997Z,61.26
2018-09-13T00:46:02.757Z,61.52
2018-09-13T00:47:02.384Z,61.29
2018-09-13T00:48:02.522Z,61.2
2018-09-13T00:49:02.724Z,61.2
2018-09-13T00:50:02.482Z,60.95
2018-09-13T00:51:02.754Z,60.98
2018-09-13T00:52:02.612Z,61.08
2018-09-13T00:53:02.673Z,61.19
2018-09-13T00:54:02.491Z,61.23
2018-09-13T00:55:02.486Z,61.21
2018-09-13T00:56:02.624Z,61.23
2018-09-13T00:57:02.611Z,61.4
2018-09-13T00:58:02.564Z,61.6
2018-09-13T00:59:02.624Z,61.19
2018-09-13T01:00:02.719Z,60.99
2018-09-13T01:01:02.379Z,61.19
2018-09-13T01:02:02.471Z,61.51
2018-09-13T01:03:02.384Z,61.24
2018-09-13T01:04:02.394Z,61.06
2018-09-13T01:05:02.545Z,61.4
2018-09-13T01:06:02.549Z,61.2
2018-09-13T01:07:02.466Z,61.35
2018-09-13T01:08:02.515Z,61.36
2018-09-13T01:09:02.732Z,61.03
2018-09-13T01:10:02.426Z,61.46
2018-09-13T01:11:02.446Z,60.95
2018-09-13T01:12:02.574Z,61.18
2018-09-13T01:13:02.631Z,61.33
2018-09-13T01:14:02.335Z,61.32
2018-09-13T01:15:02.563Z,61.38
2018-09-13T01:16:02.580Z,61.12
2018-09-13T01:17:03.327Z,61.46
2018-09-13T01:18:02.511Z,61.28
2018-09-13T01:19:02.432Z,61.35
2018-09-13T01:20:02.722Z,61.33
2018-09-13T01:21:02.512Z,61.5
2018-09-13T01:22:02.474Z,61.26
2018-09-13T01:23:02.699Z,61.46
2018-09-13T01:24:02.662Z,61.5
2018-09-13T01:25:02.417Z,61.26
2018-09-13T01:26:02.830Z,61.22
2018-09-13T01:27:02.413Z,60.99
2018-09-13T01:28:02.490Z,60.98
2018-09-13T01:29:02.637Z,61.35
2018-09-13T01:30:02.711Z,61.32
2018-09-13T01:31:02.463Z,60.91
2018-09-13T01:32:02.502Z,61.45
2018-09-13T01:33:02.626Z,61
2018-09-13T01:34:02.532Z,61.35
2018-09-13T01:35:02.706Z,61.08
2018-09-13T01:36:02.398Z,61.25
2018-09-13T01:37:02.485Z,61.31
2018-09-13T01:38:02.713Z,61.21
2018-09-13T01:39:02.959Z,61.28
2018-09-13T01:40:02.810Z,61.36
2018-09-13T01:41:02.822Z,61.11
2018-09-13T01:42:02.735Z,61.22
2018-09-13T01:43:02.612Z,61.13
2018-09-13T01:44:02.471Z,61.35
2018-09-13T01:45:02.783Z,61.57
2018-09-13T01:46:02.667Z,61.2
2018-09-13T01:47:02.694Z,61.13
2018-09-13T01:48:02.814Z,61.53
2018-09-13T01:49:02.297Z,61.22
2018-09-13T01:50:02.760Z,61.19
2018-09-13T01:51:02.511Z,61.27
2018-09-13T01:52:02.445Z,61.33
2018-09-13T01:53:02.491Z,61.27
2018-09-13T01:54:02.393Z,61.34
2018-09-13T01:55:02.735Z,61.21
2018-09-13T01:56:02.469Z,61.28
2018-09-13T01:57:02.750Z,61.2
2018-09-13T01:58:02.768Z,61.24
2018-09-13T01:59:02.696Z,61.38
2018-09-13T02:00:02.400Z,61.47
2018-09-13T02:01:02.860Z,61.32
2018-09-13T02:02:02.817Z,61.15
2018-09-13T02:03:02.879Z,61.18
2018-09-13T02:04:02.674Z,61.26
2018-09-13T02:05:02.581Z,61.19
2018-09-13T02:06:02.465Z,61.11
2018-09-13T02:07:02.774Z,61.15
2018-09-13T02:08:02.334Z,61.03
2018-09-13T02:09:02.733Z,61.55
2018-09-13T02:10:02.724Z,61.37
2018-09-13T02:11:02.519Z,60.93
2018-09-13T02:12:02.462Z,61.33
2018-09-13T02:13:02.755Z,61.2
2018-09-13T02:14:02.422Z,61.15
2018-09-13T02:15:02.713Z,61.46
2018-09-13T02:16:02.774Z,61.28
2018-09-13T02:17:02.662Z,61.18
2018-09-13T02:18:02.768Z,61.33
2018-09-13T02:19:02.503Z,61.28
2018-09-13T02:20:02.458Z,61.25
2018-09-13T02:21:02.457Z,61.22
2018-09-13T02:22:02.408Z,61.49
2018-09-13T02:23:02.600Z,61.21
2018-09-13T02:24:02.689Z,61.42
2018-09-13T02:25:02.571Z,61.11
2018-09-13T02:26:02.829Z,61.27
2018-09-13T02:27:02.577Z,61.25
2018-09-13T02:28:02.366Z,61.67
2018-09-13T02:29:02.552Z,61.27
2018-09-13T02:30:02.429Z,61.32
2018-09-13T02:31:02.519Z,61.38
2018-09-13T02:32:02.620Z,61.36
2018-09-13T02:33:02.429Z,61.43
2018-09-13T02:34:02.515Z,61.23
2018-09-13T02:35:02.815Z,61.08
2018-09-13T02:36:02.694Z,61.34
2018-09-13T02:37:02.732Z,61.47
2018-09-13T02:38:02.629Z,61.17
2018-09-13T02:39:02.616Z,61.19
2018-09-13T02:40:02.486Z,61.48
2018-09-13T02:41:02.569Z,61.23
2018-09-13T02:42:02.609Z,61.29
2018-09-13T02:43:02.444Z,61.37
2018-09-13T02:44:02.640Z,60.99
2018-09-13T02:45:02.693Z,61.67
2018-09-13T02:46:02.512Z,61.14
2018-09-13T02:47:02.547Z,61.25
2018-09-13T02:48:02.976Z,61.06
2018-09-13T02:49:02.661Z,61.16
2018-09-13T02:50:02.771Z,61.5
2018-09-13T02:51:02.603Z,61.27
2018-09-13T02:52:02.772Z,61.16
2018-09-13T02:53:02.550Z,61.32
2018-09-13T02:54:02.441Z,61.31
2018-09-13T02:55:02.407Z,61.16
2018-09-13T02:56:02.526Z,61.05
2018-09-13T02:57:02.755Z,61.22
2018-09-13T02:58:02.682Z,61.37
2018-09-13T02:59:02.713Z,61.22
2018-09-13T03:00:02.648Z,61.27
2018-09-13T03:01:02.726Z,61.04
2018-09-13T03:02:02.783Z,61.29
2018-09-13T03:03:02.436Z,61.3
2018-09-13T03:04:02.523Z,61.38
2018-09-13T03:05:02.814Z,61.56
2018-09-13T03:06:02.740Z,61.06
2018-09-13T03:07:02.449Z,61.21
2018-09-13T03:08:02.479Z,61.41
2018-09-13T03:09:02.907Z,61.55
2018-09-13T03:10:02.676Z,61.46
2018-09-13T03:11:02.663Z,61.3
2018-09-13T03:12:02.674Z,61.08
2018-09-13T03:13:02.640Z,61.19
2018-09-13T03:14:02.403Z,61.15
2018-09-13T03:15:02.493Z,61.29
2018-09-13T03:16:02.703Z,61.35
2018-09-13T03:17:02.655Z,61.27
2018-09-13T03:18:02.743Z,61.2
2018-09-13T03:19:02.737Z,61.43
2018-09-13T03:20:02.584Z,61.18
2018-09-13T03:21:02.684Z,61.33
2018-09-13T03:22:02.621Z,61.62
2018-09-13T03:23:02.577Z,61.35
2018-09-13T03:24:02.729Z,61.42
2018-09-13T03:25:02.736Z,61.28
2018-09-13T03:26:02.465Z,61.27
2018-09-13T03:27:02.712Z,61.28
2018-09-13T03:28:02.574Z,61.28
2018-09-13T03:29:02.681Z,61.26
2018-09-13T03:30:02.508Z,61.34
2018-09-13T03:31:02.899Z,61.51
2018-09-13T03:32:02.577Z,61.3
2018-09-13T03:33:02.421Z,61.23
2018-09-13T03:34:02.560Z,61.58
2018-09-13T03:35:02.687Z,61.36
2018-09-13T03:36:02.922Z,61.63
2018-09-13T03:37:02.778Z,61.37
2018-09-13T03:38:02.398Z,61.02
2018-09-13T03:39:02.595Z,61.22
2018-09-13T03:40:02.970Z,61.48
2018-09-13T03:41:02.737Z,61.13
2018-09-13T03:42:02.802Z,61.25
2018-09-13T03:43:02.463Z,61.21
2018-09-13T03:44:02.382Z,61.56
2018-09-13T03:45:02.486Z,61.31
2018-09-13T03:46:02.477Z,61.06
2018-09-13T03:47:02.408Z,61.18
2018-09-13T03:48:02.433Z,61.28
2018-09-13T03:49:02.345Z,61.35
2018-09-13T03:50:02.411Z,61.33
2018-09-13T03:51:02.510Z,61.3
2018-09-13T03:52:02.342Z,61.35
2018-09-13T03:53:02.353Z,61.13
2018-09-13T03:54:02.340Z,61.39
2018-09-13T03:55:02.341Z,61.08
2018-09-13T03:56:02.477Z,61.35
2018-09-13T03:57:02.360Z,61.38
2018-09-13T03:58:02.669Z,61.24
2018-09-13T03:59:02.377Z,61.42
2018-09-13T04:00:02.420Z,61.3
2018-09-13T04:01:02.561Z,61.41
2018-09-13T04:02:02.658Z,61.29
2018-09-13T04:03:02.588Z,61.28
2018-09-13T04:04:02.978Z,61.36
2018-09-13T04:05:02.589Z,61.51
2018-09-13T04:06:02.569Z,61.38
2018-09-13T04:07:02.647Z,61.31
2018-09-13T04:08:02.835Z,61.05
2018-09-13T04:09:02.973Z,61.37
2018-09-13T04:10:02.728Z,61.18
2018-09-13T04:11:02.475Z,61.31
2018-09-13T04:12:02.475Z,61.3
2018-09-13T04:13:02.553Z,61.35
2018-09-13T04:14:02.804Z,61.04
2018-09-13T04:15:02.592Z,60.99
2018-09-13T04:16:02.440Z,61.41
2018-09-13T04:17:02.309Z,61.43
2018-09-13T04:18:02.459Z,61.16
2018-09-13T04:19:02.834Z,61.23
2018-09-13T04:20:02.543Z,61.52
2018-09-13T04:21:02.590Z,61.41
2018-09-13T04:22:02.716Z,61.24
2018-09-13T04:23:02.695Z,61.42
2018-09-13T04:24:02.461Z,61.32
2018-09-13T04:25:02.731Z,61
2018-09-13T04:26:02.475Z,61.49
2018-09-13T04:27:02.482Z,61.14
2018-09-13T04:28:02.881Z,61.34
2018-09-13T04:29:02.513Z,61.48
2018-09-13T04:30:02.523Z,61.32
2018-09-13T04:31:02.668Z,61.09
2018-09-13T04:32:02.668Z,61.13
2018-09-13T04:33:02.785Z,61.28
2018-09-13T04:34:02.793Z,61.26
2018-09-13T04:35:02.620Z,61.3
2018-09-13T04:36:02.711Z,61.5
2018-09-13T04:37:02.693Z,61.08
2018-09-13T04:38:02.297Z,61.09
2018-09-13T04:39:02.508Z,61.42
2018-09-13T04:40:02.776Z,61.14
2018-09-13T04:41:02.721Z,61.39
2018-09-13T04:42:02.707Z,61.3
2018-09-13T04:43:02.638Z,61.56
2018-09-13T04:44:02.359Z,60.99
2018-09-13T04:45:02.962Z,61.49
2018-09-13T04:46:02.506Z,61.25
2018-09-13T04:47:02.627Z,61.33
2018-09-13T04:48:02.286Z,61.29
2018-09-13T04:49:02.514Z,61.28
2018-09-13T04:50:02.485Z,61.44
2018-09-13T04:51:02.596Z,61.56
2018-09-13T04:52:02.846Z,61.11
2018-09-13T04:53:02.642Z,61.44
2018-09-13T04:54:03.024Z,61.02
2018-09-13T04:55:02.668Z,61.24
2018-09-13T04:56:02.406Z,61.37
2018-09-13T04:57:02.742Z,61.14
2018-09-13T04:58:02.524Z,61.46
2018-09-13T04:59:02.625Z,61.32
2018-09-13T05:00:02.674Z,61.43
2018-09-13T05:01:02.457Z,61.32
2018-09-13T05:02:02.353Z,61.31
2018-09-13T05:03:02.595Z,61.43
2018-09-13T05:04:02.651Z,61.32
2018-09-13T05:05:02.628Z,60.97
2018-09-13T05:06:02.688Z,61.42
2018-09-13T05:07:02.354Z,61.36
2018-09-13T05:08:02.665Z,61.1
2018-09-13T05:09:02.463Z,61.29
2018-09-13T05:10:03.130Z,61.43
2018-09-13T05:11:02.370Z,61.44
2018-09-13T05:12:02.558Z,61.01
2018-09-13T05:13:02.760Z,61.41
2018-09-13T05:14:02.674Z,61.11
2018-09-13T05:15:02.789Z,61.46
2018-09-13T05:16:02.746Z,61.21
2018-09-13T05:17:02.508Z,61.13
2018-09-13T05:18:02.713Z,61.35
2018-09-13T05:19:02.632Z,61.32
2018-09-13T05:20:02.691Z,61.25
2018-09-13T05:21:02.394Z,61.29
2018-09-13T05:22:02.617Z,61.45
2018-09-13T05:23:02.340Z,61.26
2018-09-13T05:24:02.514Z,61.26
2018-09-13T05:25:02.664Z,61.05
2018-09-13T05:26:02.690Z,61.33
2018-09-13T05:27:02.967Z,61.08
2018-09-13T05:28:02.680Z,60.95
2018-09-13T05:29:02.688Z,61.51
2018-09-13T05:30:02.441Z,61.22
2018-09-13T05:31:02.709Z,61.26
2018-09-13T05:32:02.653Z,61.32
2018-09-13T05:33:02.451Z,61.02
2018-09-13T05:34:02.876Z,61.3
2018-09-13T05:35:02.757Z,61.16
2018-09-13T05:36:02.670Z,61.61
2018-09-13T05:37:02.806Z,61.44
2018-09-13T05:38:02.332Z,61.26
2018-09-13T05:39:03.022Z,61.21
2018-09-13T05:40:02.742Z,61.1
2018-09-13T05:41:02.399Z,61.38
2018-09-13T05:42:02.606Z,61.2
2018-09-13T05:43:02.680Z,61.23
2018-09-13T05:44:02.718Z,61.13
2018-09-13T05:45:02.512Z,61.16
2018-09-13T05:46:02.655Z,61.08
2018-09-13T05:47:02.743Z,61.09
2018-09-13T05:48:02.520Z,61.52
2018-09-13T05:49:02.682Z,61.3
2018-09-13T05:50:02.608Z,61.15
2018-09-13T05:51:02.614Z,61.26
2018-09-13T05:52:02.438Z,61.21
2018-09-13T05:53:02.479Z,61.22
2018-09-13T05:54:02.391Z,61.35
2018-09-13T05:55:02.454Z,61.08
2018-09-13T05:56:02.335Z,61.01
2018-09-13T05:57:02.582Z,61.22
2018-09-13T05:58:02.460Z,61.33
2018-09-13T05:59:02.534Z,61.28
2018-09-13T06:00:02.721Z,61.15
2018-09-13T06:01:03.101Z,61.2
2018-09-13T06:02:02.615Z,61.57
2018-09-13T06:03:02.310Z,61.37
2018-09-13T06:04:02.454Z,61.11
2018-09-13T06:05:02.384Z,60.88
2018-09-13T06:06:02.571Z,61.35
2018-09-13T06:07:02.431Z,61.22
2018-09-13T06:08:02.574Z,61.2
2018-09-13T06:09:02.359Z,61.08
2018-09-13T06:10:02.560Z,61.05
2018-09-13T06:11:02.364Z,61.42
2018-09-13T06:12:02.276Z,61.51
2018-09-13T06:13:02.659Z,61.32
2018-09-13T06:14:02.824Z,61.32
2018-09-13T06:15:02.875Z,61.3
2018-09-13T06:16:02.433Z,61.18
2018-09-13T06:17:02.422Z,61.51
2018-09-13T06:18:02.674Z,61.16
2018-09-13T06:19:02.737Z,61.52
2018-09-13T06:20:02.377Z,61.34
2018-09-13T06:21:02.605Z,61.37
2018-09-13T06:22:02.363Z,61.03
2018-09-13T06:23:02.376Z,61.04
2018-09-13T06:24:02.769Z,61.15
2018-09-13T06:25:02.731Z,61.2
2018-09-13T06:26:02.633Z,61.18
2018-09-13T06:27:02.607Z,61.49
2018-09-13T06:28:02.739Z,61.13
2018-09-13T06:29:02.425Z,61.45
2018-09-13T06:30:02.298Z,61.17
2018-09-13T06:31:02.412Z,61.32
2018-09-13T06:32:02.493Z,61.15
2018-09-13T06:33:02.780Z,61.22
2018-09-13T06:34:02.478Z,61.22
2018-09-13T06:35:02.638Z,61.32
2018-09-13T06:36:02.793Z,61.6
2018-09-13T06:37:02.424Z,61.18
2018-09-13T06:38:02.667Z,61.17
2018-09-13T06:39:02.481Z,61.19
2018-09-13T06:40:02.548Z,61.07
2018-09-13T06:41:02.530Z,61.07
2018-09-13T06:42:02.636Z,61.48
2018-09-13T06:43:02.791Z,61.32
2018-09-13T06:44:02.597Z,61.26
2018-09-13T06:45:02.495Z,61.22
2018-09-13T06:46:02.514Z,61.53
2018-09-13T06:47:02.789Z,61.39
2018-09-13T06:48:03.043Z,61.19
2018-09-13T06:49:02.695Z,61.12
2018-09-13T06:50:02.376Z,61.15
2018-09-13T06:51:02.434Z,61.19
2018-09-13T06:52:02.502Z,61.46
2018-09-13T06:53:02.499Z,61.25
2018-09-13T06:54:02.545Z,61.58
2018-09-13T06:55:02.625Z,61.17
2018-09-13T06:56:02.680Z,61.36
2018-09-13T06:57:02.709Z,61.22
2018-09-13T06:58:02.811Z,61.27
2018-09-13T06:59:02.306Z,61.5
2018-09-13T07:00:02.396Z,61.33
2018-09-13T07:01:02.573Z,61.01
2018-09-13T07:02:02.488Z,61.39
2018-09-13T07:03:02.570Z,61.36
2018-09-13T07:04:02.535Z,61.15
2018-09-13T07:05:02.541Z,61.25
2018-09-13T07:06:02.477Z,61.32
2018-09-13T07:07:02.675Z,61.17
2018-09-13T07:08:02.469Z,61.22
2018-09-13T07:09:02.971Z,61.11
2018-09-13T07:10:02.530Z,61.06
2018-09-13T07:11:02.743Z,61.21
2018-09-13T07:12:02.448Z,61.18
2018-09-13T07:13:02.328Z,61.19
2018-09-13T07:14:02.757Z,61.52
2018-09-13T07:15:02.390Z,61.31
2018-09-13T07:16:02.279Z,61.33
2018-09-13T07:17:02.342Z,61.22
2018-09-13T07:18:02.444Z,61.58
2018-09-13T07:19:02.274Z,61.44
2018-09-13T07:20:02.541Z,61.32
2018-09-13T07:21:02.489Z,61.26
2018-09-13T07:22:02.541Z,61.5
2018-09-13T07:23:02.285Z,61.44
2018-09-13T07:24:02.528Z,61.45
2018-09-13T07:25:02.458Z,61.4
2018-09-13T07:26:02.527Z,61.19
2018-09-13T07:27:02.539Z,61.37
2018-09-13T07:28:02.442Z,61.2
2018-09-13T07:29:02.619Z,61.19
2018-09-13T07:30:02.422Z,61.37
2018-09-13T07:31:02.554Z,61.26
2018-09-13T07:32:02.365Z,61.37
2018-09-13T07:33:02.410Z,61.26
2018-09-13T07:34:02.423Z,61.29
2018-09-13T07:35:02.658Z,61.32
2018-09-13T07:36:02.486Z,61.28
2018-09-13T07:37:02.537Z,61.34
2018-09-13T07:38:02.360Z,61.25
2018-09-13T07:39:02.358Z,61.46
2018-09-13T07:40:02.804Z,61.29
2018-09-13T07:41:02.754Z,61.29
2018-09-13T07:42:02.518Z,61.47
2018-09-13T07:43:02.739Z,61.17
2018-09-13T07:44:02.395Z,61.36
2018-09-13T07:45:02.551Z,61.11
2018-09-13T07:46:02.684Z,61.27
2018-09-13T07:47:02.376Z,61.96
2018-09-13T07:48:02.429Z,62.85
2018-09-13T07:49:02.855Z,62.87
2018-09-13T07:50:02.551Z,62.83
2018-09-13T07:51:02.769Z,63.07
2018-09-13T07:52:02.643Z,63.17
2018-09-13T07:53:02.515Z,63.14
2018-09-13T07:54:02.288Z,63.06
2018-09-13T07:55:02.633Z,62.85
2018-09-13T07:56:02.576Z,63.2
2018-09-13T07:57:03.320Z,63.43
2018-09-13T07:58:02.486Z,63.46
2018-09-13T07:59:02.464Z,63.41
2018-09-13T08:00:02.382Z,63.66
2018-09-13T08:01:02.677Z,63.55
2018-09-13T08:02:02.366Z,63.19
2018-09-13T08:03:02.381Z,63.22
2018-09-13T08:04:02.528Z,63.12
2018-09-13T08:05:02.705Z,63.08
2018-09-13T08:06:03.092Z,62.6
2018-09-13T08:07:02.845Z,62.99
2018-09-13T08:08:02.446Z,62.96
2018-09-13T08:09:02.374Z,63.06
2018-09-13T08:10:02.444Z,62.84
2018-09-13T08:11:02.476Z,62.41
2018-09-13T08:12:02.749Z,62.72
2018-09-13T08:13:02.649Z,62.56
2018-09-13T08:14:02.444Z,62.64
2018-09-13T08:15:02.841Z,62.49
2018-09-13T08:16:02.692Z,62.59
2018-09-13T08:17:02.524Z,62.4
2018-09-13T08:18:02.257Z,62.52
2018-09-13T08:19:02.525Z,62.31
2018-09-13T08:20:02.455Z,62.3
2018-09-13T08:21:02.870Z,62.24
2018-09-13T08:22:03.375Z,62.22
2018-09-13T08:23:02.916Z,62.29
2018-09-13T08:24:02.718Z,62.47
2018-09-13T08:25:02.276Z,62.55
2018-09-13T08:26:02.288Z,62.08
2018-09-13T08:27:02.660Z,62.56
2018-09-13T08:28:02.345Z,62.19
2018-09-13T08:29:02.649Z,62.03
2018-09-13T08:30:02.397Z,62.32
2018-09-13T08:31:02.685Z,62.26
2018-09-13T08:32:02.718Z,62.1
2018-09-13T08:33:02.696Z,62.16
2018-09-13T08:34:02.720Z,62.2
2018-09-13T08:35:03.244Z,61.95
2018-09-13T08:36:02.497Z,62.37
2018-09-13T08:37:02.712Z,62.14
2018-09-13T08:38:02.306Z,62.19
2018-09-13T08:39:02.281Z,62.14
2018-09-13T08:40:02.661Z,62.14
2018-09-13T08:41:02.402Z,62.12
2018-09-13T08:42:02.569Z,62.02
2018-09-13T08:43:02.646Z,62.1
2018-09-13T08:44:02.509Z,62.28
2018-09-13T08:45:02.496Z,62.17
2018-09-13T08:46:02.624Z,62.09
2018-09-13T08:47:02.525Z,62.13
2018-09-13T08:48:02.394Z,62.19
2018-09-13T08:49:02.326Z,62.14
2018-09-13T08:50:02.127Z,62.02
2018-09-13T08:51:02.368Z,62.05
2018-09-13T08:52:02.752Z,62.18
2018-09-13T08:53:02.328Z,61.89
2018-09-13T08:54:02.877Z,62.11
2018-09-13T08:55:02.559Z,61.83
2018-09-13T08:56:02.708Z,61.99
2018-09-13T08:57:02.590Z,62.08
2018-09-13T08:58:02.539Z,62.04
2018-09-13T08:59:02.395Z,62.08
2018-09-13T09:00:02.342Z,61.69
2018-09-13T09:01:02.649Z,62.15
2018-09-13T09:02:02.674Z,62.3
2018-09-13T09:03:02.726Z,62.06
2018-09-13T09:04:02.487Z,62.01
2018-09-13T09:05:02.412Z,62.17
2018-09-13T09:06:02.523Z,62.22
2018-09-13T09:07:02.552Z,62.16
2018-09-13T09:08:02.410Z,62.35
2018-09-13T09:09:02.481Z,62.49
2018-09-13T09:10:02.749Z,62.29
2018-09-13T09:11:02.819Z,62.39
2018-09-13T09:12:02.805Z,62.25
2018-09-13T09:13:02.323Z,62.5
2018-09-13T09:14:02.912Z,62.32
2018-09-13T09:15:02.493Z,62.51
2018-09-13T09:16:02.691Z,62.05
2018-09-13T09:17:02.620Z,62.04
2018-09-13T09:18:02.676Z,61.91
2018-09-13T09:19:03.064Z,62
2018-09-13T09:20:02.699Z,62.17
2018-09-13T09:21:02.402Z,62.4
2018-09-13T09:22:02.301Z,62.32
2018-09-13T09:23:02.588Z,62.09
2018-09-13T09:24:02.656Z,62.11
2018-09-13T09:25:02.686Z,62.27
2018-09-13T09:26:02.798Z,62.25
2018-09-13T09:27:02.505Z,62.25
2018-09-13T09:28:02.473Z,61.96
2018-09-13T09:29:02.647Z,62.31
2018-09-13T09:30:02.408Z,62.23
2018-09-13T09:31:02.611Z,62.2
2018-09-13T09:32:02.285Z,62.11
2018-09-13T09:33:02.645Z,62.18
2018-09-13T09:34:02.641Z,62.13
2018-09-13T09:35:02.541Z,61.96
2018-09-13T09:36:02.602Z,62.18
2018-09-13T09:37:02.390Z,62.04
2018-09-13T09:38:02.586Z,62.26
2018-09-13T09:39:02.520Z,62.38
2018-09-13T09:40:02.422Z,62.36
2018-09-13T09:41:02.374Z,62.27
2018-09-13T09:42:02.301Z,62.37
2018-09-13T09:43:02.468Z,62.29
2018-09-13T09:44:02.860Z,62.07
2018-09-13T09:45:03.660Z,62.24
2018-09-13T09:46:02.673Z,62.17
2018-09-13T09:47:02.703Z,62.15
2018-09-13T09:48:02.633Z,62.37
2018-09-13T09:49:02.561Z,62.07
2018-09-13T09:50:02.556Z,62.2
2018-09-13T09:51:02.440Z,62.2
2018-09-13T09:52:02.678Z,62.16
2018-09-13T09:53:02.665Z,61.95
2018-09-13T09:54:02.661Z,62.19
2018-09-13T09:55:02.465Z,62.36
2018-09-13T09:56:02.678Z,61.84
2018-09-13T09:57:02.356Z,62.04
2018-09-13T09:58:03.037Z,62.13
2018-09-13T09:59:02.429Z,62.23
2018-09-13T10:00:02.339Z,62.07
2018-09-13T10:01:02.745Z,61.93
2018-09-13T10:02:02.413Z,61.89
2018-09-13T10:03:02.786Z,61.94
2018-09-13T10:04:02.335Z,62.07
2018-09-13T10:05:02.424Z,62.21
2018-09-13T10:06:02.249Z,62.1
2018-09-13T10:07:02.313Z,61.97
2018-09-13T10:08:02.365Z,62.28
2018-09-13T10:09:02.495Z,62.21
2018-09-13T10:10:02.448Z,62.35
2018-09-13T10:11:02.298Z,62.04
2018-09-13T10:12:02.446Z,62.07
2018-09-13T10:13:02.270Z,62.04
2018-09-13T10:14:02.459Z,61.94
2018-09-13T10:15:02.398Z,61.87
2018-09-13T10:16:02.609Z,62.19
2018-09-13T10:17:02.480Z,61.94
2018-09-13T10:18:02.463Z,61.94
2018-09-13T10:19:02.345Z,61.7
2018-09-13T10:20:02.749Z,61.89
2018-09-13T10:21:02.399Z,62.21
2018-09-13T10:22:02.399Z,61.89
2018-09-13T10:23:02.807Z,62.1
2018-09-13T10:24:02.578Z,61.99
2018-09-13T10:25:02.580Z,62
2018-09-13T10:26:02.215Z,61.92
2018-09-13T10:27:02.838Z,61.86
2018-09-13T10:28:02.613Z,61.97
2018-09-13T10:29:02.405Z,61.86
2018-09-13T10:30:02.239Z,61.76
2018-09-13T10:31:02.673Z,61.9
2018-09-13T10:32:02.728Z,61.94
2018-09-13T10:33:03.019Z,61.7
2018-09-13T10:34:02.549Z,61.73
2018-09-13T10:35:02.494Z,61.96
2018-09-13T10:36:02.435Z,62.15
2018-09-13T10:37:02.640Z,61.96
2018-09-13T10:38:02.397Z,61.63
2018-09-13T10:39:02.483Z,62.04
2018-09-13T10:40:02.696Z,62.15
2018-09-13T10:41:02.489Z,61.63
2018-09-13T10:42:02.806Z,62.13
2018-09-13T10:43:02.857Z,61.75
2018-09-13T10:44:02.703Z,61.89
2018-09-13T10:45:02.411Z,61.52
2018-09-13T10:46:02.676Z,61.89
2018-09-13T10:47:02.710Z,62.15
2018-09-13T10:48:02.870Z,61.94
2018-09-13T10:49:02.766Z,61.95
2018-09-13T10:50:02.455Z,61.81
2018-09-13T10:51:02.924Z,61.86
2018-09-13T10:52:02.352Z,61.89
2018-09-13T10:53:02.527Z,61.99
2018-09-13T10:54:02.542Z,61.95
2018-09-13T10:55:02.583Z,62.01
2018-09-13T10:56:02.781Z,61.78
2018-09-13T10:57:02.511Z,61.72
2018-09-13T10:58:02.573Z,61.84
2018-09-13T10:59:02.611Z,61.78
2018-09-13T11:00:02.360Z,61.72
2018-09-13T11:01:02.544Z,61.86
2018-09-13T11:02:02.517Z,61.85
2018-09-13T11:03:02.416Z,61.75
2018-09-13T11:04:02.656Z,61.98
2018-09-13T11:05:02.427Z,62.03
2018-09-13T11:06:02.351Z,61.57
2018-09-13T11:07:02.415Z,61.73
2018-09-13T11:08:02.285Z,61.8
2018-09-13T11:09:02.397Z,61.57
2018-09-13T11:10:02.299Z,61.51
2018-09-13T11:11:03.241Z,61.72
2018-09-13T11:12:02.735Z,61.64
2018-09-13T11:13:02.673Z,61.56
2018-09-13T11:14:02.932Z,61.92
2018-09-13T11:15:02.551Z,61.72
2018-09-13T11:16:02.375Z,61.52
2018-09-13T11:17:02.276Z,61.46
2018-09-13T11:18:02.350Z,61.44
2018-09-13T11:19:02.382Z,61.65
2018-09-13T11:20:02.636Z,61.66
2018-09-13T11:21:02.461Z,61.7
2018-09-13T11:22:02.886Z,61.78
2018-09-13T11:23:02.356Z,61.66
2018-09-13T11:24:02.569Z,61.87
2018-09-13T11:25:02.329Z,61.41
2018-09-13T11:26:02.332Z,61.75
2018-09-13T11:27:02.419Z,61.38
2018-09-13T11:28:02.356Z,61.74
2018-09-13T11:29:02.395Z,61.66
2018-09-13T11:30:02.365Z,61.75
2018-09-13T11:31:02.412Z,61.59
2018-09-13T11:32:02.280Z,61.63
2018-09-13T11:33:02.248Z,61.86
2018-09-13T11:34:02.392Z,61.83
2018-09-13T11:35:02.462Z,61.57
2018-09-13T11:36:02.501Z,61.46
2018-09-13T11:37:02.457Z,61.48
2018-09-13T11:38:02.436Z,61.74
2018-09-13T11:39:02.349Z,61.7
2018-09-13T11:40:02.524Z,61.83
2018-09-13T11:41:02.638Z,61.51
2018-09-13T11:42:02.365Z,61.9
2018-09-13T11:43:02.315Z,62.07
2018-09-13T11:44:02.543Z,61.87
2018-09-13T11:45:02.463Z,61.88
2018-09-13T11:46:02.404Z,61.94
2018-09-13T11:47:02.803Z,61.85
2018-09-13T11:48:02.874Z,61.51
2018-09-13T11:49:02.347Z,62.03
2018-09-13T11:50:02.422Z,61.98
2018-09-13T11:51:02.240Z,61.7
2018-09-13T11:52:02.391Z,61.6
2018-09-13T11:53:02.460Z,61.48
2018-09-13T11:54:02.493Z,61.38
2018-09-13T11:55:02.465Z,61.63
2018-09-13T11:56:02.728Z,61.9
2018-09-13T11:57:02.454Z,61.8
2018-09-13T11:58:02.651Z,61.83
2018-09-13T11:59:02.257Z,61.77
2018-09-13T12:00:02.304Z,61.74
2018-09-13T12:01:02.436Z,61.37
2018-09-13T12:02:02.702Z,61.8
2018-09-13T12:03:02.424Z,61.83
2018-09-13T12:04:02.430Z,61.75
2018-09-13T12:05:02.578Z,61.61
2018-09-13T12:06:02.557Z,61.36
2018-09-13T12:07:02.389Z,61.88
2018-09-13T12:08:02.465Z,61.56
2018-09-13T12:09:02.674Z,61.77
2018-09-13T12:10:02.405Z,61.65
2018-09-13T12:11:02.642Z,61.32
2018-09-13T12:12:02.492Z,61.6
2018-09-13T12:13:02.473Z,61.95
2018-09-13T12:14:02.487Z,62.07
2018-09-13T12:15:03.693Z,61.45
2018-09-13T12:16:02.390Z,61.79
2018-09-13T12:17:02.438Z,61.79
2018-09-13T12:18:02.874Z,61.37
2018-09-13T12:19:02.391Z,61.81
2018-09-13T12:20:02.691Z,61.82
2018-09-13T12:21:03.066Z,61.57
2018-09-13T12:22:02.344Z,61.68
2018-09-13T12:23:02.458Z,61.77
2018-09-13T12:24:02.343Z,61.78
2018-09-13T12:25:02.426Z,61.82
2018-09-13T12:26:02.542Z,61.78
2018-09-13T12:27:02.592Z,61.66
2018-09-13T12:28:02.254Z,61.36
2018-09-13T12:29:02.463Z,61.66
2018-09-13T12:30:02.512Z,61.96
2018-09-13T12:31:02.435Z,61.84
2018-09-13T12:32:02.197Z,61.38
2018-09-13T12:33:02.904Z,61.66
2018-09-13T12:34:02.633Z,61.91
2018-09-13T12:35:02.439Z,61.77
2018-09-13T12:36:02.205Z,61.75
2018-09-13T12:37:02.534Z,61.77
2018-09-13T12:38:02.291Z,61.68
2018-09-13T12:39:02.270Z,61.59
2018-09-13T12:40:02.481Z,61.92
2018-09-13T12:41:02.420Z,61.47
2018-09-13T12:42:02.337Z,61.55
2018-09-13T12:43:02.697Z,61.66
2018-09-13T12:44:02.306Z,61.36
2018-09-13T12:45:02.792Z,61.38
2018-09-13T12:46:02.767Z,61.71
2018-09-13T12:47:03.653Z,61.6
2018-09-13T12:48:02.352Z,61.61
2018-09-13T12:49:02.740Z,61.54
2018-09-13T12:50:02.412Z,61.67
2018-09-13T12:51:02.751Z,61.73
2018-09-13T12:52:02.452Z,61.64
2018-09-13T12:53:02.458Z,61.77
2018-09-13T12:54:02.256Z,61.53
2018-09-13T12:55:02.380Z,61.82